createdAt,value
2023-07-18T00:02:14.216Z,23.33
2023-07-18T00:04:42.024Z,23.33
2023-07-18T00:07:09.588Z,23.35
2023-07-18T00:09:38.957Z,23.37
2023-07-18T00:12:07.386Z,23.36
2023-07-18T00:14:34.889Z,23.34
2023-07-18T00:17:02.558Z,23.33
2023-07-18T00:19:31.523Z,23.35
2023-07-18T00:21:59.117Z,23.36
2023-07-18T00:24:26.588Z,23.37
2023-07-18T00:26:56.253Z,23.36
2023-07-18T00:29:24.721Z,23.35
2023-07-18T00:31:52.393Z,23.34
2023-07-18T00:34:20.485Z,23.35
2023-07-18T00:36:48.101Z,23.35
2023-07-18T00:39:15.512Z,23.33
2023-07-18T00:41:43.678Z,23.32
2023-07-18T00:44:11.201Z,23.33
2023-07-18T00:46:38.817Z,23.36
2023-07-18T00:49:06.513Z,23.37
2023-07-18T00:51:37.002Z,23.35
2023-07-18T00:54:07.836Z,23.31
2023-07-18T00:56:36.842Z,23.29
2023-07-18T00:59:05.021Z,23.30
2023-07-18T01:01:34.151Z,23.31
2023-07-18T01:04:02.912Z,23.27
2023-07-18T01:06:30.380Z,23.20
2023-07-18T01:08:58.037Z,23.14
2023-07-18T01:11:25.494Z,23.10
2023-07-18T01:13:52.948Z,23.06
2023-07-18T01:16:20.495Z,23.02
2023-07-18T01:18:47.986Z,22.99
2023-07-18T01:21:20.506Z,22.99
2023-07-18T01:23:48.840Z,23.02
2023-07-18T01:26:18.725Z,23.02
2023-07-18T01:28:47.130Z,23.01
2023-07-18T01:31:15.188Z,22.97
2023-07-18T01:33:45.271Z,22.96
2023-07-18T01:36:12.748Z,22.93
2023-07-18T01:38:40.175Z,22.92
2023-07-18T01:41:09.670Z,22.87
2023-07-18T01:43:37.201Z,22.80
2023-07-18T01:46:04.730Z,22.78
2023-07-18T01:48:34.536Z,22.82
2023-07-18T01:51:01.988Z,22.84
2023-07-18T01:53:29.431Z,22.81
2023-07-18T01:56:00.430Z,22.77
2023-07-18T01:58:28.776Z,22.76
2023-07-18T02:00:56.246Z,22.74
2023-07-18T02:03:23.786Z,22.72
2023-07-18T02:05:53.215Z,22.68
2023-07-18T02:08:20.661Z,22.63
2023-07-18T02:10:48.100Z,22.61
2023-07-18T02:13:15.632Z,22.63
2023-07-18T02:15:43.809Z,22.63
2023-07-18T02:18:11.272Z,22.60
2023-07-18T02:20:38.884Z,22.56
2023-07-18T02:23:09.813Z,22.56
2023-07-18T02:25:39.613Z,22.57
2023-07-18T02:28:09.062Z,22.55
2023-07-18T02:30:37.484Z,22.49
2023-07-18T02:33:08.517Z,22.40
2023-07-18T02:35:39.915Z,22.38
2023-07-18T02:38:07.334Z,22.40
2023-07-18T02:40:34.813Z,22.39
2023-07-18T02:43:02.250Z,22.38
2023-07-18T02:45:30.029Z,22.37
2023-07-18T02:47:57.694Z,22.36
2023-07-18T02:50:25.362Z,22.35
2023-07-18T02:52:52.966Z,22.31
2023-07-18T02:55:20.414Z,22.27
2023-07-18T02:57:47.928Z,22.21
2023-07-18T03:00:27.337Z,22.16
2023-07-18T03:02:55.230Z,22.18
2023-07-18T03:05:26.159Z,22.17
2023-07-18T03:07:55.860Z,22.15
2023-07-18T03:10:24.661Z,22.13
2023-07-18T03:12:52.136Z,22.13
2023-07-18T03:15:22.905Z,22.17
2023-07-18T03:17:50.636Z,22.17
2023-07-18T03:20:18.549Z,22.13
2023-07-18T03:22:47.377Z,22.06
2023-07-18T03:25:18.041Z,22.00
2023-07-18T03:27:45.538Z,21.95
2023-07-18T03:30:13.637Z,21.94
2023-07-18T03:32:41.751Z,21.92
2023-07-18T03:35:10.482Z,21.89
2023-07-18T03:37:38.047Z,21.87
2023-07-18T03:40:07.572Z,21.86
2023-07-18T03:42:35.172Z,21.83
2023-07-18T03:45:04.355Z,21.76
2023-07-18T03:47:32.855Z,21.70
2023-07-18T03:50:03.880Z,21.69
2023-07-18T03:52:34.325Z,21.71
2023-07-18T03:55:01.835Z,21.73
2023-07-18T03:57:34.405Z,21.73
2023-07-18T04:00:05.130Z,21.74
2023-07-18T04:02:32.596Z,21.75
2023-07-18T04:05:00.121Z,21.77
2023-07-18T04:07:30.054Z,21.80
2023-07-18T04:09:57.480Z,21.80
2023-07-18T04:12:27.303Z,21.82
2023-07-18T04:14:59.898Z,21.85
2023-07-18T04:17:29.981Z,21.90
2023-07-18T04:20:02.802Z,21.94
2023-07-18T04:22:30.880Z,21.97
2023-07-18T04:24:58.367Z,21.98
2023-07-18T04:27:27.874Z,21.99
2023-07-18T04:29:57.774Z,22.05
2023-07-18T04:32:25.447Z,22.09
2023-07-18T04:34:52.953Z,22.12
2023-07-18T04:37:22.073Z,22.15
2023-07-18T04:39:49.605Z,22.18
2023-07-18T04:42:17.046Z,22.18
2023-07-18T04:44:44.494Z,22.19
2023-07-18T04:47:12.049Z,22.24
2023-07-18T04:49:40.400Z,22.30
2023-07-18T04:52:08.874Z,22.30
2023-07-18T04:54:36.484Z,22.24
2023-07-18T04:57:05.582Z,22.18
2023-07-18T04:59:35.733Z,22.15
2023-07-18T05:02:03.731Z,22.13
2023-07-18T05:04:31.330Z,22.13
2023-07-18T05:07:00.265Z,22.14
2023-07-18T05:09:29.375Z,22.16
2023-07-18T05:11:57.023Z,22.23
2023-07-18T05:14:24.433Z,22.31
2023-07-18T05:16:52.398Z,22.37
2023-07-18T05:19:20.231Z,22.40
2023-07-18T05:21:48.063Z,22.42
2023-07-18T05:24:16.990Z,22.47
2023-07-18T05:26:44.483Z,22.53
2023-07-18T05:29:11.929Z,22.60
2023-07-18T05:31:41.361Z,22.66
2023-07-18T05:34:10.660Z,22.75
2023-07-18T05:36:38.159Z,22.79
2023-07-18T05:39:05.679Z,22.79
2023-07-18T05:41:33.087Z,22.84
2023-07-18T05:44:00.650Z,22.91
2023-07-18T05:46:28.276Z,22.97
2023-07-18T05:48:55.827Z,23.04
2023-07-18T05:51:23.344Z,23.06
2023-07-18T05:53:50.801Z,23.08
2023-07-18T05:56:18.247Z,23.17
2023-07-18T05:58:46.540Z,23.18
2023-07-18T06:01:15.353Z,23.11
2023-07-18T06:03:43.426Z,23.07
2023-07-18T06:08:33.094Z,23.16
2023-07-18T06:11:00.571Z,23.20
2023-07-18T06:13:28.184Z,23.23
2023-07-18T06:15:55.839Z,23.25
2023-07-18T06:18:23.753Z,23.32
2023-07-18T06:20:54.169Z,23.43
2023-07-18T06:23:23.835Z,23.54
2023-07-18T06:25:54.784Z,23.60
2023-07-18T06:28:22.302Z,23.65
2023-07-18T06:31:02.190Z,23.76
2023-07-18T06:33:29.946Z,23.93
2023-07-18T06:36:00.829Z,24.05
2023-07-18T06:38:28.501Z,24.18
2023-07-18T06:40:56.641Z,24.24
2023-07-18T06:43:25.810Z,24.25
2023-07-18T06:45:53.294Z,24.25
2023-07-18T06:48:23.834Z,24.27
2023-07-18T06:50:52.967Z,24.30
2023-07-18T06:53:21.499Z,24.33
2023-07-18T06:55:54.899Z,24.38
2023-07-18T06:58:22.609Z,24.45
2023-07-18T07:00:51.656Z,24.51
2023-07-18T07:03:21.672Z,24.62
2023-07-18T07:05:49.234Z,24.76
2023-07-18T07:08:20.238Z,24.86
2023-07-18T07:10:47.886Z,24.89
2023-07-18T07:13:17.088Z,24.90
2023-07-18T07:15:44.573Z,24.94
2023-07-18T07:18:12.313Z,25.01
2023-07-18T07:20:39.885Z,25.13
2023-07-18T07:23:07.391Z,25.24
2023-07-18T07:25:37.369Z,25.30
2023-07-18T07:28:05.652Z,25.33
2023-07-18T07:30:33.801Z,25.39
2023-07-18T07:33:01.331Z,25.47
2023-07-18T07:35:29.975Z,25.55
2023-07-18T07:37:59.026Z,25.62
2023-07-18T07:40:26.470Z,25.72
2023-07-18T07:42:53.961Z,25.82
2023-07-18T07:45:22.411Z,25.86
2023-07-18T07:47:50.164Z,25.87
2023-07-18T07:50:17.708Z,25.89
2023-07-18T07:52:46.804Z,25.89
2023-07-18T07:55:14.482Z,25.90
2023-07-18T07:57:42.322Z,25.96
2023-07-18T08:00:10.466Z,26.01
2023-07-18T08:02:38.373Z,26.04
2023-07-18T08:05:07.159Z,26.08
2023-07-18T08:07:34.686Z,26.14
2023-07-18T08:10:02.104Z,26.22
2023-07-18T08:12:31.878Z,26.30
2023-07-18T08:14:59.475Z,26.35
2023-07-18T08:17:27.373Z,26.43
2023-07-18T08:19:55.390Z,26.51
2023-07-18T08:22:23.509Z,26.58
2023-07-18T08:24:50.911Z,26.63
2023-07-18T08:27:18.364Z,26.69
2023-07-18T08:29:45.797Z,26.73
2023-07-18T08:32:13.255Z,26.77
2023-07-18T08:34:40.744Z,26.84
2023-07-18T08:37:10.718Z,26.88
2023-07-18T08:39:40.867Z,26.89
2023-07-18T08:42:08.557Z,26.95
2023-07-18T08:44:36.489Z,27.00
2023-07-18T08:47:06.666Z,27.04
2023-07-18T08:49:37.245Z,27.13
2023-07-18T08:52:06.701Z,27.25
2023-07-18T08:54:35.835Z,27.35
2023-07-18T08:57:05.032Z,27.42
2023-07-18T08:59:32.715Z,27.45
2023-07-18T09:02:00.184Z,27.48
2023-07-18T09:04:27.657Z,27.58
2023-07-18T09:07:01.950Z,27.65
2023-07-18T09:09:29.538Z,27.75
2023-07-18T09:12:04.078Z,27.83
2023-07-18T09:14:33.927Z,27.90
2023-07-18T09:17:04.906Z,27.96
2023-07-18T09:19:46.920Z,28.04
2023-07-18T09:22:15.121Z,28.03
2023-07-18T09:24:44.202Z,28.01
2023-07-18T09:27:17.300Z,28.03
2023-07-18T09:29:47.586Z,28.11
2023-07-18T09:32:19.519Z,28.15
2023-07-18T09:34:54.022Z,28.14
2023-07-18T09:37:21.633Z,28.15
2023-07-18T09:39:49.156Z,28.14
2023-07-18T09:42:22.824Z,28.07
2023-07-18T09:44:53.422Z,27.99
2023-07-18T09:47:21.699Z,27.94
2023-07-18T09:49:49.624Z,27.94
2023-07-18T09:52:17.421Z,27.98
2023-07-18T09:54:45.401Z,28.01
2023-07-18T09:57:14.121Z,28.05
2023-07-18T09:59:41.616Z,28.06
2023-07-18T10:02:12.648Z,28.10
2023-07-18T10:04:40.945Z,28.20
2023-07-18T10:07:10.639Z,28.29
2023-07-18T10:09:40.202Z,28.33
2023-07-18T10:12:10.498Z,28.37
2023-07-18T10:14:52.967Z,28.39
2023-07-18T10:17:37.518Z,28.35
2023-07-18T10:20:21.012Z,28.26
2023-07-18T10:22:49.567Z,28.21
2023-07-18T10:25:20.303Z,28.23
2023-07-18T10:27:48.800Z,28.26
2023-07-18T10:30:20.774Z,28.26
2023-07-18T10:32:55.416Z,28.25
2023-07-18T10:35:27.106Z,28.22
2023-07-18T10:37:57.571Z,28.22
2023-07-18T10:40:35.075Z,28.20
2023-07-18T10:43:05.842Z,28.18
2023-07-18T10:45:42.049Z,28.20
2023-07-18T10:48:15.385Z,28.26
2023-07-18T10:50:48.662Z,28.26
2023-07-18T10:53:20.281Z,28.18
2023-07-18T10:55:49.066Z,28.16
2023-07-18T10:58:18.407Z,28.19
2023-07-18T11:00:46.611Z,28.26
2023-07-18T11:03:24.620Z,28.33
2023-07-18T11:05:52.532Z,28.38
2023-07-18T11:08:27.323Z,28.46
2023-07-18T11:10:59.441Z,28.55
2023-07-18T11:13:36.837Z,28.62
2023-07-18T11:16:15.619Z,28.58
2023-07-18T11:18:45.072Z,28.53
2023-07-18T11:21:13.393Z,28.53
2023-07-18T11:23:41.198Z,28.52
2023-07-18T11:26:13.596Z,28.44
2023-07-18T11:28:42.128Z,28.29
2023-07-18T11:34:02.924Z,27.88
2023-07-18T11:36:38.049Z,27.69
2023-07-18T11:39:25.994Z,27.54
2023-07-18T11:41:55.405Z,27.42
2023-07-18T11:44:25.061Z,27.30
2023-07-18T11:46:53.292Z,27.15
2023-07-18T11:49:36.292Z,27.11
2023-07-18T11:52:05.312Z,27.14
2023-07-18T11:54:37.010Z,27.16
2023-07-18T11:57:06.893Z,27.10
2023-07-18T11:59:34.438Z,27.02
2023-07-18T12:02:02.976Z,26.95
2023-07-18T12:04:30.525Z,26.90
2023-07-18T12:06:58.947Z,26.90
2023-07-18T12:09:27.003Z,26.93
2023-07-18T12:11:55.786Z,27.01
2023-07-18T12:14:23.627Z,27.07
2023-07-18T12:16:51.190Z,27.03
2023-07-18T12:19:21.645Z,26.94
2023-07-18T12:21:52.321Z,26.80
2023-07-18T12:24:19.892Z,26.67
2023-07-18T12:26:50.258Z,26.66
2023-07-18T12:29:18.303Z,26.73
2023-07-18T12:31:47.497Z,26.83
2023-07-18T12:34:15.520Z,26.91
2023-07-18T12:36:43.151Z,26.98
2023-07-18T12:39:11.522Z,27.01
2023-07-18T12:41:39.323Z,27.05
2023-07-18T12:44:11.683Z,27.11
2023-07-18T12:46:40.630Z,27.19
2023-07-18T12:49:08.137Z,27.21
2023-07-18T12:51:35.692Z,27.24
2023-07-18T12:54:04.090Z,27.28
2023-07-18T12:56:34.702Z,27.29
2023-07-18T12:59:02.187Z,27.33
2023-07-18T13:01:31.097Z,27.36
2023-07-18T13:03:58.897Z,27.31
2023-07-18T13:06:26.444Z,27.23
2023-07-18T13:08:54.475Z,27.15
2023-07-18T13:11:21.991Z,27.05
2023-07-18T13:13:52.855Z,26.94
2023-07-18T13:16:20.671Z,26.88
2023-07-18T13:18:49.716Z,26.83
2023-07-18T13:21:17.938Z,26.83
2023-07-18T13:23:45.482Z,26.80
2023-07-18T13:26:14.408Z,26.76
2023-07-18T13:28:42.880Z,26.75
2023-07-18T13:31:10.873Z,26.75
2023-07-18T13:33:39.606Z,26.68
2023-07-18T13:36:07.375Z,26.61
2023-07-18T13:38:35.570Z,26.58
2023-07-18T13:41:09.152Z,26.57
2023-07-18T13:43:37.173Z,26.59
2023-07-18T13:46:04.928Z,26.63
2023-07-18T13:48:33.974Z,26.67
2023-07-18T13:51:04.073Z,26.74
2023-07-18T13:53:31.555Z,26.78
2023-07-18T13:55:59.040Z,26.79
2023-07-18T13:58:29.180Z,26.78
2023-07-18T14:00:56.710Z,26.77
2023-07-18T14:03:35.186Z,26.74
2023-07-18T14:06:04.776Z,26.70
2023-07-18T14:08:32.621Z,26.65
2023-07-18T14:11:00.608Z,26.60
2023-07-18T14:13:32.793Z,26.58
2023-07-18T14:16:00.288Z,26.60
2023-07-18T14:18:27.787Z,26.61
2023-07-18T14:20:55.283Z,26.59
2023-07-18T14:23:22.977Z,26.54
2023-07-18T14:25:50.565Z,26.48
2023-07-18T14:28:18.952Z,26.43
2023-07-18T14:30:46.491Z,26.39
2023-07-18T14:33:15.483Z,26.38
2023-07-18T14:35:45.101Z,26.39
2023-07-18T14:38:13.465Z,26.40
2023-07-18T14:40:41.113Z,26.39
2023-07-18T14:43:12.169Z,26.36
2023-07-18T14:45:39.777Z,26.32
2023-07-18T14:48:07.545Z,26.28
2023-07-18T14:50:37.604Z,26.24
2023-07-18T14:53:05.432Z,26.22
2023-07-18T14:55:35.205Z,26.19
2023-07-18T14:58:03.140Z,26.19
2023-07-18T15:00:30.651Z,26.20
2023-07-18T15:02:58.169Z,26.21
2023-07-18T15:05:25.963Z,26.22
2023-07-18T15:07:53.485Z,26.23
2023-07-18T15:10:20.979Z,26.24
2023-07-18T15:12:53.356Z,26.24
2023-07-18T15:15:21.767Z,26.23
2023-07-18T15:17:52.231Z,26.19
2023-07-18T15:20:20.153Z,26.14
2023-07-18T15:22:52.697Z,26.10
2023-07-18T15:25:20.476Z,26.06
2023-07-18T15:27:47.982Z,26.04
2023-07-18T15:30:15.550Z,26.02
2023-07-18T15:32:46.069Z,26.00
2023-07-18T15:35:14.828Z,25.99
2023-07-18T15:37:42.312Z,25.97
2023-07-18T15:40:10.639Z,25.96
2023-07-18T15:42:39.525Z,25.96
2023-07-18T15:45:07.487Z,25.94
2023-07-18T15:47:35.095Z,25.91
2023-07-18T15:50:02.849Z,25.87
2023-07-18T15:52:30.385Z,25.83
2023-07-18T15:54:58.705Z,25.81
2023-07-18T15:57:26.198Z,25.80
2023-07-18T15:59:53.711Z,25.80
2023-07-18T16:02:21.313Z,25.78
2023-07-18T16:04:48.810Z,25.75
2023-07-18T16:07:16.319Z,25.73
2023-07-18T16:09:57.658Z,25.71
2023-07-18T16:12:25.866Z,25.70
2023-07-18T16:15:02.588Z,25.70
2023-07-18T16:17:30.349Z,25.72
2023-07-18T16:19:58.501Z,25.73
2023-07-18T16:22:25.978Z,25.73
2023-07-18T16:24:53.576Z,25.74
2023-07-18T16:27:23.170Z,25.74
2023-07-18T16:29:51.061Z,25.75
2023-07-18T16:32:18.672Z,25.77
2023-07-18T16:34:46.531Z,25.79
2023-07-18T16:37:14.077Z,25.80
2023-07-18T16:39:41.603Z,25.81
2023-07-18T16:42:22.939Z,25.83
2023-07-18T16:44:51.958Z,25.84
2023-07-18T16:47:19.653Z,25.84
2023-07-18T16:49:47.193Z,25.83
2023-07-18T16:52:15.156Z,25.81
2023-07-18T16:54:42.691Z,25.79
2023-07-18T16:57:11.427Z,25.78
2023-07-18T16:59:38.997Z,25.78
2023-07-18T17:02:07.077Z,25.78
2023-07-18T17:04:34.573Z,25.78
2023-07-18T17:07:03.423Z,25.76
2023-07-18T17:09:31.040Z,25.75
2023-07-18T17:11:58.492Z,25.74
2023-07-18T17:14:26.026Z,25.70
2023-07-18T17:16:53.667Z,25.68
2023-07-18T17:19:21.854Z,25.64
2023-07-18T17:21:49.354Z,25.63
2023-07-18T17:24:18.354Z,25.60
2023-07-18T17:26:46.979Z,25.57
2023-07-18T17:29:14.514Z,25.55
2023-07-18T17:31:42.159Z,25.53
2023-07-18T17:34:10.081Z,25.51
2023-07-18T17:36:37.494Z,25.48
2023-07-18T17:39:05.545Z,25.42
2023-07-18T17:41:33.268Z,25.38
2023-07-18T17:44:00.736Z,25.34
2023-07-18T17:46:28.392Z,25.30
2023-07-18T17:48:55.917Z,25.26
2023-07-18T17:51:23.502Z,25.22
2023-07-18T17:53:53.642Z,25.18
2023-07-18T17:56:23.369Z,25.15
2023-07-18T17:58:50.949Z,25.13
2023-07-18T18:01:21.534Z,25.12
2023-07-18T18:03:49.724Z,25.10
2023-07-18T18:06:17.365Z,25.08
2023-07-18T18:08:45.096Z,25.06
2023-07-18T18:11:12.665Z,25.06
2023-07-18T18:13:40.153Z,25.05
2023-07-18T18:16:09.346Z,25.02
2023-07-18T18:18:38.191Z,24.99
2023-07-18T18:21:07.527Z,24.97
2023-07-18T18:26:35.461Z,24.94
2023-07-18T18:29:06.238Z,24.87
2023-07-18T18:31:34.655Z,24.83
2023-07-18T18:34:02.092Z,24.78
2023-07-18T18:36:30.722Z,24.74
2023-07-18T18:38:57.919Z,24.70
2023-07-18T18:41:26.421Z,24.66
2023-07-18T18:43:57.170Z,24.61
2023-07-18T18:46:24.043Z,24.57
2023-07-18T18:48:50.976Z,24.54
2023-07-18T18:51:20.671Z,24.50
2023-07-18T18:53:47.672Z,24.46
2023-07-18T18:56:14.344Z,24.42
2023-07-18T18:58:41.794Z,24.39
2023-07-18T19:01:10.177Z,24.36
2023-07-18T19:03:38.769Z,24.34
2023-07-18T19:06:06.244Z,24.31
2023-07-18T19:08:33.374Z,24.28
2023-07-18T19:11:07.445Z,24.26
2023-07-18T19:13:36.201Z,24.23
2023-07-18T19:16:04.080Z,24.21
2023-07-18T19:18:31.160Z,24.19
2023-07-18T19:20:58.932Z,24.17
2023-07-18T19:23:29.035Z,24.14
2023-07-18T19:25:56.004Z,24.09
2023-07-18T19:28:23.175Z,24.04
2023-07-18T19:30:52.015Z,24.00
2023-07-18T19:33:19.128Z,24.00
2023-07-18T19:35:46.673Z,24.03
2023-07-18T19:38:14.637Z,24.03
2023-07-18T19:40:41.901Z,24.01
2023-07-18T19:43:09.255Z,23.98
2023-07-18T19:45:36.575Z,23.94
2023-07-18T19:48:03.961Z,23.89
2023-07-18T19:50:31.118Z,23.83
2023-07-18T19:52:59.893Z,23.75
2023-07-18T19:55:26.740Z,23.68
2023-07-18T19:57:55.139Z,23.61
2023-07-18T20:00:24.340Z,23.56
2023-07-18T20:02:51.113Z,23.55
2023-07-18T20:05:22.501Z,23.54
2023-07-18T20:07:49.739Z,23.51
2023-07-18T20:10:16.454Z,23.45
2023-07-18T20:12:44.156Z,23.37
2023-07-18T20:15:10.981Z,23.30
2023-07-18T20:17:37.997Z,23.21
2023-07-18T20:20:05.692Z,23.13
2023-07-18T20:22:33.252Z,23.07
2023-07-18T20:24:59.979Z,23.01
2023-07-18T20:27:27.992Z,22.98
2023-07-18T20:29:55.592Z,22.95
2023-07-18T20:32:24.734Z,22.92
2023-07-18T20:34:52.347Z,22.87
2023-07-18T20:37:19.112Z,22.85
2023-07-18T20:39:46.513Z,22.82
2023-07-18T20:42:13.606Z,22.77
2023-07-18T20:44:45.195Z,22.69
2023-07-18T20:47:12.659Z,22.62
2023-07-18T20:49:39.592Z,22.62
2023-07-18T20:52:09.776Z,22.66
2023-07-18T20:54:37.420Z,22.68
2023-07-18T20:57:05.437Z,22.68
2023-07-18T20:59:32.429Z,22.63
2023-07-18T21:01:59.174Z,22.56
2023-07-18T21:04:27.424Z,22.48
2023-07-18T21:06:55.032Z,22.41
2023-07-18T21:09:22.273Z,22.38
2023-07-18T21:11:49.393Z,22.40
2023-07-18T21:14:18.516Z,22.39
2023-07-18T21:16:46.328Z,22.37
2023-07-18T21:19:14.670Z,22.34
2023-07-18T21:21:41.916Z,22.29
2023-07-18T21:24:09.230Z,22.20
2023-07-18T21:26:36.919Z,22.13
2023-07-18T21:29:05.814Z,22.06
2023-07-18T21:31:34.678Z,22.05
2023-07-18T21:34:02.120Z,22.04
2023-07-18T21:36:30.782Z,22.00
2023-07-18T21:38:58.209Z,21.95
2023-07-18T21:41:26.008Z,21.91
2023-07-18T21:43:53.079Z,21.88
2023-07-18T21:46:19.798Z,21.83
2023-07-18T21:48:48.302Z,21.79
2023-07-18T21:51:15.969Z,21.80
2023-07-18T21:53:43.196Z,21.83
2023-07-18T21:56:10.706Z,21.84
2023-07-18T21:58:38.422Z,21.84
2023-07-18T22:01:07.895Z,21.82
2023-07-18T22:03:38.232Z,21.77
2023-07-18T22:06:06.297Z,21.74
2023-07-18T22:08:33.242Z,21.70
2023-07-18T22:11:00.360Z,21.69
2023-07-18T22:13:29.321Z,21.71
2023-07-18T22:16:01.599Z,21.72
2023-07-18T22:18:29.143Z,21.70
2023-07-18T22:20:56.349Z,21.66
2023-07-18T22:23:24.972Z,21.60
2023-07-18T22:26:07.932Z,21.54
2023-07-18T22:28:42.331Z,21.52
2023-07-18T22:31:11.410Z,21.53
2023-07-18T22:33:39.993Z,21.50
2023-07-18T22:36:06.937Z,21.45
2023-07-18T22:38:33.813Z,21.42
2023-07-18T22:41:03.021Z,21.39
2023-07-18T22:43:31.081Z,21.35
2023-07-18T22:45:57.881Z,21.34
2023-07-18T22:48:27.298Z,21.38
2023-07-18T22:50:58.291Z,21.37
2023-07-18T22:53:29.792Z,21.33
2023-07-18T22:55:58.704Z,21.29
2023-07-18T22:58:27.063Z,21.25
2023-07-18T23:00:55.497Z,21.20
2023-07-18T23:03:22.645Z,21.19
2023-07-18T23:05:49.329Z,21.19
2023-07-18T23:08:16.350Z,21.17
2023-07-18T23:10:43.214Z,21.16
2023-07-18T23:13:16.464Z,21.14
2023-07-18T23:15:43.625Z,21.11
2023-07-18T23:18:10.464Z,21.08
2023-07-18T23:20:37.541Z,21.11
2023-07-18T23:23:05.850Z,21.18
2023-07-18T23:25:34.572Z,21.21
2023-07-18T23:28:01.294Z,21.18
2023-07-18T23:30:28.666Z,21.12
2023-07-18T23:32:55.598Z,21.07
2023-07-18T23:35:27.774Z,21.04
2023-07-18T23:37:57.522Z,21.04
2023-07-18T23:40:25.377Z,21.05
2023-07-18T23:42:52.667Z,21.05
2023-07-18T23:45:21.649Z,21.03
2023-07-18T23:47:48.989Z,20.97
2023-07-18T23:50:16.213Z,20.89
2023-07-18T23:52:44.295Z,20.82
2023-07-18T23:55:12.236Z,20.78
2023-07-18T23:57:42.484Z,20.75
